New Smyrna, Florida
Current Conditions -  °F | °C
As of 6:47 PM on Monday 24 Nov 2014 (Local Time) from KEVB Reporting Station
Scattered Clouds Scattered Clouds  
Wind Chill: 75°   Ceiling: Unl
Heat Index: 75°   Visibility: 10mi
Dew Point: 70°   Wind: 5mph
Humidity: 83%   Direction: 180°S
Pressure: 29.96"   Gusts: NA
Location:  28.9963°N, 80.8761°W
Report Text: KEVB 242347Z 18004KT 10SM SCT050 24/21 A2996
Loading
Personal Weather Stations






























Interactive Weather Map New forecast layout! Learn more

10-Day Weather Forecast

Advertisements
Track Severe Weather on mobile